MSC Vega — D5BE4 — position and weather

sailwx.info

Track history (hours):
 
Tides and Currents Weather Stations Pressure Air Temp Water Temp Dewpoint Dewpoint Depression Visibility Wind Speed Wind Dir Waves Ship Positions

MSC Vega

Last reported at 2016-Nov-15 02:29 UTC. Time now 2016-Dec-03 04:41 UTC.
Position N 22°18' E 114°06'.
Warning: this ship's position is 18 days out of date.

Length 366 m; draft 11.5 m.

Type: Ship (hazmat cat A). MMSI: 636015506.

Date/timePositionNaut miles runAvg speedWind from/ knotsBaromVisibWave heightAir tempDewpointWater temp
2016-Nov-15 02:29N 22°18' E 114°06'3 0.1
2016-Nov-14 08:23N 22°20' E 114°08'16 2.0
2016-Nov-14 00:24N 22°28' E 113°53'0 0.0
2016-Nov-13 23:29N 22°28' E 113°53'0 0.0
2016-Nov-13 22:29N 22°28' E 113°53'0 0.0
2016-Nov-13 19:29N 22°28' E 113°53'0 0.0
2016-Nov-13 18:29N 22°28' E 113°53'0 0.0
2016-Nov-13 17:23N 22°28' E 113°53'0 0.0
2016-Nov-13 15:29N 22°28' E 113°53'0 0.0
2016-Nov-13 13:29N 22°28' E 113°53'0 0.0
2016-Nov-13 10:29N 22°28' E 113°53'0 0.0
2016-Nov-13 08:23N 22°28' E 113°53'0 0.0
2016-Nov-13 05:23N 22°28' E 113°53'0 0.0
2016-Nov-13 03:29N 22°28' E 113°53'255 8.0
2016-Nov-11 19:32N 23°56' E 118°13'34 7.9
2016-Nov-11 15:12N 24°27' E 117°58'0 0.0
2016-Nov-11 14:24N 24°27' E 117°58'0 0.0
2016-Nov-11 09:30N 24°27' E 117°58'0 0.0
2016-Nov-11 06:24N 24°27' E 117°58'0 0.0
2016-Nov-11 05:30N 24°27' E 117°58'0 0.0
2016-Nov-11 04:30N 24°27' E 117°58'3 2.7
2016-Nov-11 03:33N 24°26' E 118°01'1110.6
2016-Nov-11 02:33N 24°20' E 118°10'1211.5
2016-Nov-11 01:33N 24°14' E 118°21'1 1.2
2016-Nov-11 00:33N 24°14' E 118°22'0 0.0
2016-Nov-10 23:33N 24°14' E 118°22'0 0.0
2016-Nov-10 22:27N 24°14' E 118°22'0 0.0
2016-Nov-10 20:26N 24°14' E 118°22'0 0.0
2016-Nov-10 18:33N 24°14' E 118°22'0 0.0
2016-Nov-10 16:27N 24°14' E 118°22'0 0.0
2016-Nov-10 15:09N 24°14' E 118°22'0 0.0
2016-Nov-10 10:33N 24°14' E 118°22'0 0.0
2016-Nov-10 09:14N 24°14' E 118°22'0 0.1
2016-Nov-10 08:33N 24°14' E 118°22'0 0.1
2016-Nov-10 07:32N 24°14' E 118°22'0 0.1
2016-Nov-10 06:32N 24°14' E 118°22'0 0.0
2016-Nov-10 05:32N 24°14' E 118°22'0 0.0
2016-Nov-10 04:26N 24°14' E 118°22'0 0.0
2016-Nov-10 00:33N 24°14' E 118°22'7 3.3
2016-Nov-09 22:33N 24°15' E 118°30'3713.8
2016-Nov-09 19:51N 24°26' E 119°09'1314.3
2016-Nov-09 18:56N 24°35' E 119°19'  
2016-Nov-07 02:33N 31°30' E 121°26'1110.9
2016-Nov-07 01:33N 31°30' E 121°38'10 3.1
2016-Nov-06 22:30N 31°34' E 121°28'0 0.0
2016-Nov-06 20:24N 31°35' E 121°28'0 0.0
2016-Nov-06 19:24N 31°35' E 121°28'0 0.1
2016-Nov-06 17:06N 31°34' E 121°29'0 0.0
2016-Nov-06 15:30N 31°34' E 121°29'0 0.0
2016-Nov-06 13:30N 31°34' E 121°29'0 0.1
2016-Nov-06 12:24N 31°34' E 121°28'0 0.0
2016-Nov-06 11:06N 31°34' E 121°28'0 0.1
2016-Nov-06 10:24N 31°34' E 121°28'0 0.1
2016-Nov-06 08:30N 31°35' E 121°28'0 0.0
2016-Nov-06 07:10N 31°35' E 121°28'1 0.1
2016-Nov-05 12:31N 31°36' E 121°27'0 0.0
2016-Nov-05 11:34N 31°36' E 121°27'0 0.0
2016-Nov-05 10:31N 31°36' E 121°27'0 0.0
2016-Nov-05 09:34N 31°36' E 121°27'0 0.0
2016-Nov-05 08:31N 31°36' E 121°27'0 0.0
2016-Nov-05 07:33N 31°36' E 121°27'0 0.0
2016-Nov-05 04:30N 31°36' E 121°27'0 0.0
2016-Nov-05 02:31N 31°36' E 121°27'  
Track history (hours):
 
Tides and Currents Weather Stations Pressure Air Temp Water Temp Dewpoint Dewpoint Depression Visibility Wind Speed Wind Dir Waves Ship Positions

MSC Vega

Last reported at 2016-Nov-15 02:29 UTC. Time now 2016-Dec-03 04:41 UTC.
Position N 22°18' E 114°06'.
Warning: this ship's position is 18 days out of date.

Length 366 m; draft 11.5 m.

Type: Ship (hazmat cat A). MMSI: 636015506.

Date/timePositionNaut miles runAvg speedWind from/ knotsBaromVisibWave heightAir tempDewpointWater temp
2016-Nov-15 02:29N 22°18' E 114°06'3 0.1
2016-Nov-14 08:23N 22°20' E 114°08'16 2.0
2016-Nov-14 00:24N 22°28' E 113°53'0 0.0
2016-Nov-13 23:29N 22°28' E 113°53'0 0.0
2016-Nov-13 22:29N 22°28' E 113°53'0 0.0
2016-Nov-13 19:29N 22°28' E 113°53'0 0.0
2016-Nov-13 18:29N 22°28' E 113°53'0 0.0
2016-Nov-13 17:23N 22°28' E 113°53'0 0.0
2016-Nov-13 15:29N 22°28' E 113°53'0 0.0
2016-Nov-13 13:29N 22°28' E 113°53'0 0.0
2016-Nov-13 10:29N 22°28' E 113°53'0 0.0
2016-Nov-13 08:23N 22°28' E 113°53'0 0.0
2016-Nov-13 05:23N 22°28' E 113°53'0 0.0
2016-Nov-13 03:29N 22°28' E 113°53'255 8.0
2016-Nov-11 19:32N 23°56' E 118°13'34 7.9
2016-Nov-11 15:12N 24°27' E 117°58'0 0.0
2016-Nov-11 14:24N 24°27' E 117°58'0 0.0
2016-Nov-11 09:30N 24°27' E 117°58'0 0.0
2016-Nov-11 06:24N 24°27' E 117°58'0 0.0
2016-Nov-11 05:30N 24°27' E 117°58'0 0.0
2016-Nov-11 04:30N 24°27' E 117°58'3 2.7
2016-Nov-11 03:33N 24°26' E 118°01'1110.6
2016-Nov-11 02:33N 24°20' E 118°10'1211.5
2016-Nov-11 01:33N 24°14' E 118°21'1 1.2
2016-Nov-11 00:33N 24°14' E 118°22'0 0.0
2016-Nov-10 23:33N 24°14' E 118°22'0 0.0
2016-Nov-10 22:27N 24°14' E 118°22'0 0.0
2016-Nov-10 20:26N 24°14' E 118°22'0 0.0
2016-Nov-10 18:33N 24°14' E 118°22'0 0.0
2016-Nov-10 16:27N 24°14' E 118°22'0 0.0
2016-Nov-10 15:09N 24°14' E 118°22'0 0.0
2016-Nov-10 10:33N 24°14' E 118°22'0 0.0
2016-Nov-10 09:14N 24°14' E 118°22'0 0.1
2016-Nov-10 08:33N 24°14' E 118°22'0 0.1
2016-Nov-10 07:32N 24°14' E 118°22'0 0.1
2016-Nov-10 06:32N 24°14' E 118°22'0 0.0
2016-Nov-10 05:32N 24°14' E 118°22'0 0.0
2016-Nov-10 04:26N 24°14' E 118°22'0 0.0
2016-Nov-10 00:33N 24°14' E 118°22'7 3.3
2016-Nov-09 22:33N 24°15' E 118°30'3713.8
2016-Nov-09 19:51N 24°26' E 119°09'1314.3
2016-Nov-09 18:56N 24°35' E 119°19'  
2016-Nov-07 02:33N 31°30' E 121°26'1110.9
2016-Nov-07 01:33N 31°30' E 121°38'10 3.1
2016-Nov-06 22:30N 31°34' E 121°28'0 0.0
2016-Nov-06 20:24N 31°35' E 121°28'0 0.0
2016-Nov-06 19:24N 31°35' E 121°28'0 0.1
2016-Nov-06 17:06N 31°34' E 121°29'0 0.0
2016-Nov-06 15:30N 31°34' E 121°29'0 0.0
2016-Nov-06 13:30N 31°34' E 121°29'0 0.1
2016-Nov-06 12:24N 31°34' E 121°28'0 0.0
2016-Nov-06 11:06N 31°34' E 121°28'0 0.1
2016-Nov-06 10:24N 31°34' E 121°28'0 0.1
2016-Nov-06 08:30N 31°35' E 121°28'0 0.0
2016-Nov-06 07:10N 31°35' E 121°28'1 0.1
2016-Nov-05 12:31N 31°36' E 121°27'0 0.0
2016-Nov-05 11:34N 31°36' E 121°27'0 0.0
2016-Nov-05 10:31N 31°36' E 121°27'0 0.0
2016-Nov-05 09:34N 31°36' E 121°27'0 0.0
2016-Nov-05 08:31N 31°36' E 121°27'0 0.0
2016-Nov-05 07:33N 31°36' E 121°27'0 0.0
2016-Nov-05 04:30N 31°36' E 121°27'0 0.0
2016-Nov-05 02:31N 31°36' E 121°27'  

Dump ship's entire track history